Map

Track Data

SID SEASON NUMBER BASIN SUBBASIN NAME ISO_TIME NATURE LAT LON WMO_WIND WMO_PRES WMO_AGENCY TRACK_TYPE DIST2LAND LANDFALL IFLAG USA_AGENCY USA_ATCF_ID USA_LAT USA_LON USA_RECORD USA_STATUS USA_WIND USA_PRES USA_SSHS USA_R34_NE USA_R34_SE USA_R34_SW USA_R34_NW USA_R50_NE USA_R50_SE USA_R50_SW USA_R50_NW USA_R64_NE USA_R64_SE USA_R64_SW USA_R64_NW USA_POCI USA_ROCI USA_RMW USA_EYE TOKYO_LAT TOKYO_LON TOKYO_GRADE TOKYO_WIND TOKYO_PRES TOKYO_R50_DIR TOKYO_R50_LONG TOKYO_R50_SHORT TOKYO_R30_DIR TOKYO_R30_LONG TOKYO_R30_SHORT TOKYO_LAND CMA_LAT CMA_LON CMA_CAT CMA_WIND CMA_PRES HKO_LAT HKO_LON HKO_CAT HKO_WIND HKO_PRES NEWDELHI_LAT NEWDELHI_LON NEWDELHI_GRADE NEWDELHI_WIND NEWDELHI_PRES NEWDELHI_CI NEWDELHI_DP NEWDELHI_POCI REUNION_LAT REUNION_LON REUNION_TYPE REUNION_WIND REUNION_PRES REUNION_TNUM REUNION_CI REUNION_RMW REUNION_R34_NE REUNION_R34_SE REUNION_R34_SW REUNION_R34_NW REUNION_R50_NE REUNION_R50_SE REUNION_R50_SW REUNION_R50_NW REUNION_R64_NE REUNION_R64_SE REUNION_R64_SW REUNION_R64_NW BOM_LAT BOM_LON BOM_TYPE BOM_WIND BOM_PRES BOM_TNUM BOM_CI BOM_RMW BOM_R34_NE BOM_R34_SE BOM_R34_SW BOM_R34_NW BOM_R50_NE BOM_R50_SE BOM_R50_SW BOM_R50_NW BOM_R64_NE BOM_R64_SE BOM_R64_SW BOM_R64_NW BOM_ROCI BOM_POCI BOM_EYE BOM_POS_METHOD BOM_PRES_METHOD NADI_LAT NADI_LON NADI_CAT NADI_WIND NADI_PRES WELLINGTON_LAT WELLINGTON_LON WELLINGTON_WIND WELLINGTON_PRES DS824_LAT DS824_LON DS824_STAGE DS824_WIND DS824_PRES TD9636_LAT TD9636_LON TD9636_STAGE TD9636_WIND TD9636_PRES TD9635_LAT TD9635_LON TD9635_WIND TD9635_PRES TD9635_ROCI NEUMANN_LAT NEUMANN_LON NEUMANN_CLASS NEUMANN_WIND NEUMANN_PRES MLC_LAT MLC_LON MLC_CLASS MLC_WIND MLC_PRES USA_GUST BOM_GUST BOM_GUST_PER REUNION_GUST REUNION_GUST_PER USA_SEAHGT USA_SEARAD_NE USA_SEARAD_SE USA_SEARAD_SW USA_SEARAD_NW STORM_SPEED STORM_DIR
1976199N08149 1976 73 WP MM WILDA 1976-07-17 00:00:00 TS 8.20000 148.900 main 1166 1166 O________OOO__ jtwc_wp WP111976 8.20000 148.900 25 -1 8.20000 148.900 TC 25 8.20000 148.900 1 25 8.20000 148.900 25 1008 120 8 311
1976199N08149 1976 73 WP MM WILDA 1976-07-17 03:00:00 TS 8.45035 148.606 main 1195 1194 P________PPP__ WP111976 8.45253 148.610 25 -1 8.45253 148.610 TC 25 8.44381 148.594 1 25 8.45253 148.610 25 1007 120 8 310
1976199N08149 1976 73 WP MM WILDA 1976-07-17 06:00:00 TS 8.69750 148.295 main 1214 1213 O________OPO__ jtwc_wp WP111976 8.70000 148.300 25 -1 8.70000 148.300 TC 25 8.69002 148.280 1 25 8.70000 148.300 25 1006 120 8 307
1976199N08149 1976 73 WP MM WILDA 1976-07-17 09:00:00 TS 8.94217 147.956 main 1234 1234 P________PPP__ WP111976 8.94249 147.957 25 -1 8.94249 147.957 TC 25 8.94122 147.951 1 25 8.94249 147.957 25 1005 150 9 306
1976199N08149 1976 73 WP MM WILDA 1976-07-17 12:00:00 TS 9.20000 147.600 main 1266 1266 O________OOO__ jtwc_wp WP111976 9.20000 147.600 25 -1 9.20000 147.600 TC 25 9.20000 147.600 1 25 9.20000 147.600 25 1004 180 9 308
1976199N08149 1976 73 WP MM WILDA 1976-07-17 15:00:00 TS 9.48673 147.244 main 1299 1299 P________PPP__ WP111976 9.49247 147.250 25 -1 9.49247 147.250 TC 25 9.46951 147.225 1 25 9.49247 147.250 25 1005 180 9 310
1976199N08149 1976 73 WP MM WILDA 1976-07-17 18:00:00 TS 9.78881 146.887 main 1333 1333 O________OPO__ jtwc_wp WP111976 9.80000 146.900 25 -1 9.80000 146.900 TC 25 9.75522 146.848 1 25 9.80000 146.900 25 1006 180 9 309
1976199N08149 1976 73 WP MM WILDA 1976-07-17 21:00:00 TS 10.0796 146.514 main 1367 1367 P________PPP__ WP111976 10.0850 146.520 25 -1 10.0850 146.520 TC 25 10.0633 146.497 1 25 10.0850 146.520 25 1007 180 9 312
1976199N08149 1976 73 WP MM WILDA 1976-07-18 00:00:00 TS 10.4000 146.200 main 1401 1401 O________OOO__ jtwc_wp WP111976 10.4000 146.200 25 -1 10.4000 146.200 TC 25 10.4000 146.200 1 25 10.4000 146.200 25 1008 180 9 325
1976199N08149 1976 73 WP MM WILDA 1976-07-18 03:00:00 TS 10.7815 146.011 main 1446 1446 P________PPP__ WP111976 10.7849 146.020 25 -1 10.7849 146.020 TC 25 10.7710 145.984 1 25 10.7849 146.020 25 1007 180 9 338
1976199N08149 1976 73 WP MM WILDA 1976-07-18 06:00:00 TS 11.1924 145.881 main 1492 1492 O________OPO__ jtwc_wp WP111976 11.2000 145.900 25 -1 11.2000 145.900 TC 25 11.1698 145.825 1 25 11.2000 145.900 25 1007 180 9 341
1976199N08149 1976 73 WP MM WILDA 1976-07-18 09:00:00 TS 11.5959 145.733 main 1538 1538 P________PPP__ WP111976 11.6000 145.742 25 -1 11.6000 145.742 TC 25 11.5836 145.703 1 25 11.6000 145.742 25 1005 180 9 341
1976199N08149 1976 73 WP MM WILDA 1976-07-18 12:00:00 TS 12.0000 145.600 main 1583 1583 O________OOO__ jtwc_wp WP111976 12.0000 145.600 25 -1 12.0000 145.600 TC 25 12.0000 145.600 1 25 12.0000 145.600 25 1004 180 8 344
1976199N08149 1976 73 WP MM WILDA 1976-07-18 15:00:00 TS 12.4051 145.491 main 1629 1629 P________PPP__ WP111976 12.4000 145.492 25 -1 12.4000 145.492 TC 25 12.4202 145.486 1 25 12.4000 145.492 25 1004 180 8 346
1976199N08149 1976 73 WP MM WILDA 1976-07-18 18:00:00 TS 12.8094 145.396 main 1674 1674 O________OPO__ jtwc_wp WP111976 12.8000 145.400 25 -1 12.8000 145.400 TC 25 12.8374 145.385 1 25 12.8000 145.400 25 1004 180 8 347
1976199N08149 1976 73 WP MM WILDA 1976-07-18 21:00:00 TS 13.2202 145.298 main 1720 1720 P________PPP__ WP111976 13.2150 145.300 25 -1 13.2150 145.300 TC 25 13.2359 145.292 1 25 13.2150 145.300 25 1003 180 8 347
1976199N08149 1976 73 WP MM WILDA 1976-07-19 00:00:00 TS 13.6000 145.200 main 1765 1765 O________OOO__ jtwc_wp WP111976 13.6000 145.200 25 -1 13.6000 145.200 TC 25 13.6000 145.200 1 25 13.6000 145.200 25 1003 180 7 345
1976199N08149 1976 73 WP MM WILDA 1976-07-19 03:00:00 TS 13.9226 145.101 main 1800 1800 P________PPP__ WP111976 13.9225 145.100 25 -1 13.9225 145.100 TC 25 13.9231 145.104 1 25 13.9225 145.100 25 1003 180 6 342
1976199N08149 1976 73 WP MM WILDA 1976-07-19 06:00:00 TS 14.2025 145.002 main 1834 1834 O________OPO__ jtwc_wp WP111976 14.2000 145.000 25 -1 14.2000 145.000 TC 25 14.2099 145.007 1 25 14.2000 145.000 25 1004 180 6 340
1976199N08149 1976 73 WP MM WILDA 1976-07-19 09:00:00 TS 14.4655 144.902 main 1869 1869 P________PPP__ WP111976 14.4650 144.900 25 -1 14.4650 144.900 TC 25 14.4668 144.907 1 25 14.4650 144.900 25 1005 180 5 339
1976199N08149 1976 73 WP MM WILDA 1976-07-19 12:00:00 TS 14.7000 144.800 main 1892 1892 O________OOO__ jtwc_wp WP111976 14.7000 144.800 25 -1 14.7000 144.800 TC 25 14.7000 144.800 1 25 14.7000 144.800 25 1006 180 5 337
1976199N08149 1976 73 WP MM WILDA 1976-07-19 15:00:00 TS 14.9130 144.709 main 1915 1915 P________PPP__ WP111976 14.9075 144.707 25 -1 14.9075 144.707 TC 25 14.9295 144.714 1 25 14.9075 144.707 25 1006 150 5 335
1976199N08149 1976 73 WP MM WILDA 1976-07-19 18:00:00 TS 15.1093 144.604 main 1939 1939 O________OPO__ jtwc_wp WP111976 15.1000 144.600 25 -1 15.1000 144.600 TC 25 15.1372 144.617 1 25 15.1000 144.600 25 1006 120 5 331
1976199N08149 1976 73 WP MM WILDA 1976-07-19 21:00:00 TS 15.3122 144.482 main 1962 1962 P________PPP__ WP111976 15.3074 144.480 25 -1 15.3074 144.480 TC 25 15.3263 144.486 1 25 15.3074 144.480 25 1006 120 5 323
1976199N08149 1976 73 WP MM WILDA 1976-07-20 00:00:00 TS 15.5000 144.300 main 1987 1987 O________OOO__ jtwc_wp WP111976 15.5000 144.300 25 -1 15.5000 144.300 TC 25 15.5000 144.300 1 25 15.5000 144.300 25 1007 120 6 308
1976199N08149 1976 73 WP MM WILDA 1976-07-20 03:00:00 TS 15.6582 144.031 main 2014 2004 P________PPP__ WP111976 15.6575 144.030 25 -1 15.6575 144.030 TC 25 15.6605 144.032 1 25 15.6575 144.030 25 1006 120 7 298
1976199N08149 1976 73 WP MM WILDA 1976-07-20 06:00:00 TS 15.8019 143.702 main 2004 1974 O________OPO__ jtwc_wp WP111976 15.8000 143.700 25 -1 15.8000 143.700 TC 25 15.8077 143.710 1 25 15.8000 143.700 25 1006 120 7 294
1976199N08149 1976 73 WP MM WILDA 1976-07-20 09:00:00 TS 15.9503 143.357 main 1976 1936 P________PPP__ WP111976 15.9500 143.357 25 -1 15.9500 143.357 TC 25 15.9511 143.357 1 25 15.9500 143.357 25 1006 120 7 294
1976199N08149 1976 73 WP MM WILDA 1976-07-20 12:00:00 TS 16.1000 143.000 main 1936 1907 O________OOO__ jtwc_wp WP111976 16.1000 143.000 25 -1 16.1000 143.000 TC 25 16.1000 143.000 1 25 16.1000 143.000 25 1006 120 7 294
1976199N08149 1976 73 WP MM WILDA 1976-07-20 15:00:00 TS 16.2487 142.654 main 1907 1870 P________PPP__ WP111976 16.2425 142.642 25 -1 16.2425 142.642 TC 25 16.2675 142.687 1 25 16.2425 142.642 25 1006 120 7 295
1976199N08149 1976 73 WP MM WILDA 1976-07-20 18:00:00 TS 16.4105 142.318 main 1870 1844 O________OPO__ jtwc_wp WP111976 16.4000 142.300 25 -1 16.4000 142.300 TC 25 16.4421 142.372 1 25 16.4000 142.300 25 1006 120 7 300
1976199N08149 1976 73 WP MM WILDA 1976-07-20 21:00:00 TS 16.6050 142.017 main 1844 1818 P________PPP__ WP111976 16.5999 142.007 25 -1 16.5999 142.007 TC 25 16.6206 142.046 1 25 16.5999 142.007 25 1006 120 7 303
1976199N08149 1976 73 WP MM WILDA 1976-07-21 00:00:00 TS 16.8000 141.700 main 1818 1779 O________OOO__ jtwc_wp WP111976 16.8000 141.700 25 -1 16.8000 141.700 TC 25 16.8000 141.700 1 25 16.8000 141.700 25 1006 120 8 297
1976199N08149 1976 73 WP MM WILDA 1976-07-21 03:00:00 TS 16.9481 141.315 main 1779 1745 P________PPP__ WP111976 16.9500 141.315 25 -1 16.9500 141.315 TC 25 16.9425 141.317 1 25 16.9500 141.315 25 1005 150 8 291
1976199N08149 1976 73 WP MM WILDA 1976-07-21 06:00:00 TS 17.0975 140.904 main 1745 1710 O________OPO__ jtwc_wp WP111976 17.1000 140.900 25 -1 17.1000 140.900 TC 25 17.0900 140.914 1 25 17.1000 140.900 25 1005 180 9 293
1976199N08149 1976 73 WP MM WILDA 1976-07-21 09:00:00 TS 17.2750 140.495 main 1710 1677 P________PPP__ WP111976 17.2775 140.492 25 -1 17.2775 140.492 TC 25 17.2675 140.504 1 25 17.2775 140.492 25 1004 180 10 299
1976199N08149 1976 73 WP MM WILDA 1976-07-21 12:00:00 TS 17.5588 140.035 1004 tokyo main 1670 1642 OO_______OOO__ jtwc_wp WP111976 17.5000 140.100 25 -1 18.5000 139.000 2 1004 0 0 0 17.5000 140.100 TC 25 17.5000 140.100 1 25 17.5000 140.100 25 1004 180 10 306
1976199N08149 1976 73 WP MM WILDA 1976-07-21 15:00:00 TS 17.8721 139.621 main 1642 1615 PP_______PPP__ WP111976 17.7624 139.750 25 -1 18.7775 138.755 2 1002 0 0 17.7624 139.750 TC 25 17.7488 139.669 1 25 17.7624 139.750 25 1003 210 10 311
1976199N08149 1976 73 WP MM WILDA 1976-07-21 18:00:00 TS 18.2343 139.227 1000 tokyo main 1615 1595 OO_______OPO__ jtwc_wp WP111976 18.1000 139.400 25 -1 19.0000 138.500 2 1000 0 0 0 18.1000 139.400 TC 25 18.0631 139.253 1 25 18.1000 139.400 25 1003 240 11 314
1976199N08149 1976 73 WP MM WILDA 1976-07-21 21:00:00 TS 18.6147 138.815 main 1595 1547 PP_______PPP__ WP111976 18.4826 138.985 25 -1 19.1550 138.235 2 998 0 0 18.4826 138.985 TC 25 18.4707 138.885 1 25 18.4826 138.985 25 1002 240 12 316
1976199N08149 1976 73 WP MM WILDA 1976-07-22 00:00:00 TS 19.0619 138.390 996 tokyo main 1537 1463 OOO______OOO__ jtwc_wp WP111976 19.0000 138.600 25 -1 19.4000 138.000 2 996 0 0 0 18.7000 136.600 0 19 1002 19.0000 138.600 TC 25 19.0000 138.600 1 25 19.0000 138.600 25 1001 240 13 329
1976199N08149 1976 73 WP MM WILDA 1976-07-22 03:00:00 TS 19.6950 138.141 main 1463 1390 PPP______PPP__ WP111976 19.6900 138.276 27 -1 19.8525 137.820 2 994 0 0 19.4610 137.330 0 24 997 19.6900 138.276 TC 27 19.6693 138.461 1 26 19.6900 138.276 27 1000 270 15 346
1976199N08149 1976 73 WP MM WILDA 1976-07-22 06:00:00 TS 20.4720 138.029 992 tokyo main 1380 1304 OOOO_____OPO__ jtwc_wp WP111976 20.5000 138.100 30 -1 20.5000 137.700 2 992 0 0 0 20.3000 137.800 1 29 992 20.6000 137.700 TD 25 995 20.5000 138.100 TC 30 20.4571 138.402 1 27 20.5000 138.100 30 999 300 16 356
1976199N08149 1976 73 WP MM WILDA 1976-07-22 09:00:00 TS 21.3177 138.015 main 1304 1217 PPPP_____PPP__ WP111976 21.3350 138.162 30 -1 21.2825 137.657 2 988 0 0 21.2697 137.829 1 38 991 21.3825 137.518 TD 25 992 21.3350 138.162 TC 30 21.3164 138.367 1 28 21.3350 138.162 30 998 300 18 359
1976199N08149 1976 73 WP MM WILDA 1976-07-22 12:00:00 TS 22.2148 137.981 985 tokyo main 1217 1126 OOOO_____OOO__ jtwc_wp WP111976 22.2000 138.300 30 -1 22.2000 137.600 9 985 0 0 0 22.3000 137.600 3 48 990 22.2000 137.300 TD 25 990 22.2000 138.300 TC 30 22.2000 138.300 1 30 22.2000 138.300 30 997 300 18 356
1976199N08149 1976 73 WP MM WILDA 1976-07-22 15:00:00 TS 23.1042 137.893 main 1126 1032 PPPP_____PPP__ WP111976 23.0498 138.381 32 -1 23.1847 137.474 9 985 0 0 23.2999 137.402 3 48 987 23.0775 137.022 TD 27 990 23.0498 138.381 TC 32 23.0179 138.211 1 32 23.0498 138.381 32 996 300 18 352
1976199N08149 1976 73 WP MM WILDA 1976-07-22 18:00:00 TS 24.0075 137.709 985 tokyo main 1032 933 OOOO_____OPO__ jtwc_wp WP111976 23.9000 138.300 35 0 24.2000 137.200 9 985 0 0 0 24.3000 137.100 3 48 985 24.0000 136.700 TD 30 990 23.9000 138.300 TC 35 23.8524 138.066 1 35 23.9000 138.300 35 995 300 19 345
1976199N08149 1976 73 WP MM WILDA 1976-07-22 21:00:00 TS 24.9074 137.360 main 933 823 PPPP_____PPP__ WP111976 24.7420 137.977 37 0 25.1728 136.696 9 985 0 0 25.3148 136.702 3 48 985 24.9273 136.379 TD 32 987 24.7420 137.977 TC 37 24.7107 137.814 1 37 24.7420 137.977 37 994 300 20 336
1976199N08149 1976 73 WP MM WILDA 1976-07-23 00:00:00 TS 25.8143 136.843 985 tokyo main 817 701 OOOO_____OOO__ jtwc_wp WP111976 25.6000 137.400 40 0 26.1000 136.100 9 985 0 0 0 26.3000 136.200 3 48 985 25.9000 136.000 TS 35 985 25.6000 137.400 TC 40 25.6000 137.400 2 40 25.6000 137.400 40 994 300 21 330
1976199N08149 1976 73 WP MM WILDA 1976-07-23 03:00:00 TS 26.7212 136.192 main 701 580 PPPP_____PPP__ WP111976 26.4781 136.602 42 0 26.9420 135.613 9 987 0 0 27.2440 135.681 3 48 987 26.9275 135.529 TS 37 987 26.4781 136.602 TC 42 26.5007 136.711 2 40 26.4781 136.602 42 993 270 22 326
1976199N08149 1976 73 WP MM WILDA 1976-07-23 06:00:00 TS 27.6472 135.437 990 tokyo main 573 453 OOOO_____OPO__ jtwc_wp WP111976 27.4000 135.700 45 0 27.8000 135.100 9 990 0 0 0 28.1000 135.000 3 48 990 28.0000 135.000 TS 40 990 27.4000 135.700 TC 45 27.4307 135.860 2 40 27.4000 135.700 45 993 240 23 324
1976199N08149 1976 73 WP MM WILDA 1976-07-23 09:00:00 TS 28.5827 134.638 main 438 319 PPPP_____PPP__ WP111976 28.3549 134.861 42 0 28.7625 134.472 9 990 0 0 28.7493 133.984 3 48 992 29.1072 134.471 TS 37 992 28.3549 134.861 TC 42 28.3948 134.954 2 40 28.3549 134.861 42 993 240 24 325
1976199N08149 1976 73 WP MM WILDA 1976-07-23 12:00:00 TS 29.5857 133.871 990 tokyo main 312 188 OOOO_____OOO__ jtwc_wp WP111976 29.4000 134.100 40 0 29.8000 133.800 9 990 0 0 0 29.5000 133.000 3 48 995 30.2000 133.900 TS 35 995 29.4000 134.100 TC 40 29.4000 134.100 2 40 29.4000 134.100 40 993 240 25 330
1976199N08149 1976 73 WP MM WILDA 1976-07-23 15:00:00 TS 30.7378 133.211 main 188 104 PPPP_____PPP__ WP111976 30.5993 133.461 37 0 31.0299 133.060 9 992 0 0 30.6817 132.358 3 43 995 31.2070 133.285 TS 32 995 30.5993 133.461 TC 37 30.4476 133.388 2 36 30.5993 133.461 37 994 210 25 335
1976199N08149 1976 73 WP MM WILDA 1976-07-23 18:00:00 TS 31.8651 132.653 994 tokyo main 93 14 OOOO_____OPO__ jtwc_wp WP111976 31.8000 132.900 35 0 32.0000 132.500 9 994 0 0 0 32.0000 132.000 2 38 995 32.2000 132.600 TD 30 995 31.8000 132.900 TC 35 31.5391 132.756 2 32 31.8000 132.900 35 996 180 23 338
1976199N08149 1976 73 WP MM WILDA 1976-07-23 21:00:00 TS 32.8760 132.176 1000 tokyo main 9 0 POPP_____PPP__ WP111976 32.9426 132.276 30 -1 32.4000 132.300 2 1000 0 0 0 33.1871 131.880 2 33 998 33.2362 131.830 TD 27 997 32.9426 132.276 TC 30 32.6610 132.221 2 28 32.9426 132.276 30 999 150 24 341
1976199N08149 1976 73 WP MM WILDA 1976-07-24 00:00:00 TS 34.0920 131.720 1002 tokyo main 0 0 OOOO_____OOO__ jtwc_wp WP111976 33.8000 131.800 25 -1 35.0000 131.400 2 1002 0 0 0 34.3000 131.900 1 29 1001 34.3000 131.000 TD 25 1000 33.8000 131.800 TC 25 33.8000 131.800 1 25 33.8000 131.800 25 1002 120 18 345
1976199N08149 1976 73 WP MM WILDA 1976-07-24 03:00:00 TS 34.6537 131.592 main 11 11 PPP______PPP__ WP111976 33.8922 131.651 20 -1 35.9860 131.181 2 1003 0 0 35.3146 131.915 1 24 1002 TD 33.8922 131.651 TC 20 34.9452 131.505 1 22 33.8922 131.651 20 1002 90 12 352
1976199N08149 1976 73 WP MM WILDA 1976-07-24 06:00:00 TS 35.3202 131.523 1004 tokyo main 70 70 OOO______OPO__ jtwc_wp WP111976 34.3000 131.600 15 -1 36.3000 131.300 2 1004 0 0 0 36.3000 131.800 0 19 1003 34.3000 131.600 TC 15 36.0944 131.312 1 20 34.3000 131.600 15 1003 60 21 354
1976199N08149 1976 73 WP MM WILDA 1976-07-24 09:00:00 TS 36.7334 131.321 main 160 160 PPP______PPP__ WP111976 35.9530 131.410 15 -1 37.3472 131.216 2 1004 0 0 37.3335 131.395 0 19 1003 35.9530 131.410 TC 15 37.2466 131.189 1 17 35.9530 131.410 15 1003 60 32 353
1976199N08149 1976 73 WP MM WILDA 1976-07-24 12:00:00 TS 38.4375 131.025 1004 tokyo main 183 163 OOO______OOO__ jtwc_wp WP111976 38.4000 131.100 15 -1 38.5000 131.000 2 1004 0 0 0 38.4000 130.800 0 19 1004 38.4000 131.100 TC 15 38.4000 131.100 1 15 38.4000 131.100 15 1004 60 29 348
1976199N08149 1976 73 WP MM WILDA 1976-07-24 15:00:00 TS 39.5432 130.569 main 163 51 _P____________ WP111976 -1 39.5432 130.569 2 1004 0 0 0 TC 1 22 339
1976199N08149 1976 73 WP MM WILDA 1976-07-24 18:00:00 ET 40.5000 130.000 1004 tokyo main 41 _O____________ -1 40.5000 130.000 6 1004 0 0 0 1 21 336

Digital Typhoon Data and Search

About IBTrACS Database

This database is a web-friendly format of International Best Track Archive for Climate Stewardship (IBTrACS), a global best track data archive curated by NOAA dating back to 1842.

Updated: 2021-12-03